Aérodrome :
LOGIN :

S'inscrire | Disclaimer

   EN    FR    IT 

 










Légende :    VFR   VFR Marginal   IFR   IFR Intensif   IFR Très Intensif
Visi : 
Plafond : 
>= 8 km
>= 3000ft
5 à 8 km
1000 à 3000 ft
1500m à 5 km
500 à 1000 ft
800 à 1500m
200 à 500 ft
< 800m
< 200 ft
Symboles :   Orages  Brouillard  Fortes neiges  Fortes précipitations  Vent > 20 kt
SIGMETs :   Divers  Orages  Givrage  Turbulence  Onde Orograph.  Cendres Volcan.







- Altitude de l'aérodrome : 102 ft
- Code IATA : CNG
- Voir les cartes d'approche


LFBG - Cognac

DERNIER METAR :
  • 201500Z AUTO 27005KT 240V310 CAVOK 29/16 Q1016 NOSIG

METARs EXPIRÉS :
  • 201430Z AUTO 13003KT 060V180 CAVOK 29/16 Q1016 NOSIG
  • 201400Z AUTO VRB02KT 9999 FEW042 28/16 Q1017 NOSIG
  • 201330Z AUTO VRB01KT 9999 FEW042 28/16 Q1017 NOSIG
  • 201300Z AUTO VRB05KT CAVOK 28/16 Q1018 NOSIG
  • 201230Z AUTO 21005KT 180V270 CAVOK 27/16 Q1018 NOSIG

TAF AMD TAF LFBG
Valide du 20 à 11h jusqu'au 21 à 09h UTC


201112Z 2011/2109 VRB03KT CAVOK
BECMG 2017/2019 31010KT
TEMPO 2023/2102 1000 BR BKN002
BECMG 2108/2109 5000 -RA BKN012
Pas de NOTAMs connus pour ce terrain.



MET'MAP, la Météo Aéronautique d'un coup d'oeil ! - Copyright ORBIFLY Décembre 2007 - Disclaimer

ORBIFLY MET'MAP TEAM :

Programmation & Développement : Alexandra Zaïnal
Conception & Développement : Baudouin d'Aumeries
Co-Programmation & Développement : Marc-Olivier Méhu
Soutien technique & logistique : Manuel Goepfert

Contact : metmap@orbifly.com




SOURCES & CREDITS :

   NOAA